sensor_id;sensor_type;location;lat;lon;timestamp;pressure;altitude;pressure_sealevel;temperature;humidity
27144;BME280;14672;50.250;8.312;2023-05-03T00:01:00;99873.06;;;11.25;49.71
27144;BME280;14672;50.250;8.312;2023-05-03T00:03:27;99881.59;;;11.25;49.45
27144;BME280;14672;50.250;8.312;2023-05-03T00:05:53;99874.72;;;11.23;49.48
27144;BME280;14672;50.250;8.312;2023-05-03T00:08:19;99875.69;;;11.16;49.74
27144;BME280;14672;50.250;8.312;2023-05-03T00:10:46;99873.56;;;11.01;50.70
27144;BME280;14672;50.250;8.312;2023-05-03T00:13:12;99879.75;;;10.96;50.78
27144;BME280;14672;50.250;8.312;2023-05-03T00:15:38;99880.13;;;10.78;51.15
27144;BME280;14672;50.250;8.312;2023-05-03T00:18:03;99866.84;;;10.71;51.42
27144;BME280;14672;50.250;8.312;2023-05-03T00:20:30;99865.34;;;10.67;51.27
27144;BME280;14672;50.250;8.312;2023-05-03T00:22:55;99878.44;;;10.80;50.85
27144;BME280;14672;50.250;8.312;2023-05-03T00:25:21;99873.31;;;10.72;50.93
27144;BME280;14672;50.250;8.312;2023-05-03T00:27:47;99870.94;;;10.47;51.21
27144;BME280;14672;50.250;8.312;2023-05-03T00:30:13;99862.81;;;10.49;51.45
27144;BME280;14672;50.250;8.312;2023-05-03T00:32:38;99875.22;;;10.59;51.02
27144;BME280;14672;50.250;8.312;2023-05-03T00:35:05;99873.31;;;10.52;51.08
27144;BME280;14672;50.250;8.312;2023-05-03T00:37:31;99867.91;;;10.38;51.93
27144;BME280;14672;50.250;8.312;2023-05-03T00:39:57;99858.00;;;10.46;51.22
27144;BME280;14672;50.250;8.312;2023-05-03T00:42:22;99848.00;;;10.38;51.53
27144;BME280;14672;50.250;8.312;2023-05-03T00:44:48;99853.97;;;10.44;51.07
27144;BME280;14672;50.250;8.312;2023-05-03T00:47:15;99851.53;;;10.46;51.08
27144;BME280;14672;50.250;8.312;2023-05-03T00:49:41;99849.97;;;10.41;51.44
27144;BME280;14672;50.250;8.312;2023-05-03T00:52:07;99849.66;;;10.35;51.84
27144;BME280;14672;50.250;8.312;2023-05-03T00:54:34;99846.41;;;10.37;51.62
27144;BME280;14672;50.250;8.312;2023-05-03T00:57:00;99853.88;;;10.27;52.01
27144;BME280;14672;50.250;8.312;2023-05-03T00:59:27;99851.28;;;10.36;51.67
27144;BME280;14672;50.250;8.312;2023-05-03T01:01:53;99849.50;;;10.23;52.12
27144;BME280;14672;50.250;8.312;2023-05-03T01:04:19;99838.94;;;10.23;52.38
27144;BME280;14672;50.250;8.312;2023-05-03T01:13:23;99839.78;;;9.97;52.89
27144;BME280;14672;50.250;8.312;2023-05-03T01:16:21;99840.25;;;9.92;52.98
27144;BME280;14672;50.250;8.312;2023-05-03T01:18:50;99830.03;;;9.75;53.56
27144;BME280;14672;50.250;8.312;2023-05-03T01:21:17;99840.38;;;9.85;53.02
27144;BME280;14672;50.250;8.312;2023-05-03T01:24:07;99846.19;;;9.78;53.24
27144;BME280;14672;50.250;8.312;2023-05-03T01:26:36;99840.19;;;9.72;53.16
27144;BME280;14672;50.250;8.312;2023-05-03T01:29:01;99844.28;;;9.68;53.31
27144;BME280;14672;50.250;8.312;2023-05-03T01:32:00;99849.50;;;9.73;53.33
27144;BME280;14672;50.250;8.312;2023-05-03T01:34:50;99844.84;;;9.59;53.71
27144;BME280;14672;50.250;8.312;2023-05-03T01:37:19;99835.09;;;9.60;53.45
27144;BME280;14672;50.250;8.312;2023-05-03T01:39:55;99835.16;;;9.57;53.52
27144;BME280;14672;50.250;8.312;2023-05-03T01:42:23;99833.28;;;9.47;53.77
27144;BME280;14672;50.250;8.312;2023-05-03T01:44:50;99834.63;;;9.38;54.08
27144;BME280;14672;50.250;8.312;2023-05-03T01:47:17;99828.97;;;9.38;54.14
27144;BME280;14672;50.250;8.312;2023-05-03T01:49:42;99832.09;;;9.44;54.09
27144;BME280;14672;50.250;8.312;2023-05-03T01:52:08;99829.00;;;9.35;53.97
27144;BME280;14672;50.250;8.312;2023-05-03T01:54:34;99834.41;;;9.26;54.08
27144;BME280;14672;50.250;8.312;2023-05-03T01:57:00;99833.22;;;9.23;53.76
27144;BME280;14672;50.250;8.312;2023-05-03T01:59:26;99847.97;;;9.11;54.38
27144;BME280;14672;50.250;8.312;2023-05-03T02:01:52;99854.13;;;9.06;54.47
27144;BME280;14672;50.250;8.312;2023-05-03T02:04:17;99854.88;;;9.10;54.00
27144;BME280;14672;50.250;8.312;2023-05-03T02:06:43;99861.66;;;9.16;53.54
27144;BME280;14672;50.250;8.312;2023-05-03T02:09:09;99861.09;;;8.98;54.25
27144;BME280;14672;50.250;8.312;2023-05-03T02:11:35;99862.47;;;8.86;54.20
27144;BME280;14672;50.250;8.312;2023-05-03T02:14:00;99867.22;;;8.93;54.65
27144;BME280;14672;50.250;8.312;2023-05-03T02:16:26;99863.72;;;8.82;54.82
27144;BME280;14672;50.250;8.312;2023-05-03T02:18:52;99869.44;;;8.78;54.97
27144;BME280;14672;50.250;8.312;2023-05-03T02:21:18;99874.28;;;8.78;55.25
27144;BME280;14672;50.250;8.312;2023-05-03T02:23:44;99880.91;;;8.64;55.44
27144;BME280;14672;50.250;8.312;2023-05-03T02:26:09;99890.63;;;8.67;55.39
27144;BME280;14672;50.250;8.312;2023-05-03T02:28:35;99890.56;;;8.70;55.47
27144;BME280;14672;50.250;8.312;2023-05-03T02:31:01;99886.66;;;8.57;55.59
27144;BME280;14672;50.250;8.312;2023-05-03T02:33:27;99892.69;;;8.63;55.91
27144;BME280;14672;50.250;8.312;2023-05-03T02:35:53;99879.91;;;8.44;55.93
27144;BME280;14672;50.250;8.312;2023-05-03T02:38:19;99877.06;;;8.44;55.31
27144;BME280;14672;50.250;8.312;2023-05-03T02:40:44;99883.25;;;8.35;55.83
27144;BME280;14672;50.250;8.312;2023-05-03T02:43:10;99884.34;;;8.45;55.51
27144;BME280;14672;50.250;8.312;2023-05-03T02:45:36;99880.88;;;8.27;56.59
27144;BME280;14672;50.250;8.312;2023-05-03T02:48:02;99881.69;;;8.27;56.35
27144;BME280;14672;50.250;8.312;2023-05-03T02:50:28;99882.91;;;8.30;56.12
27144;BME280;14672;50.250;8.312;2023-05-03T02:52:54;99876.84;;;8.24;56.33
27144;BME280;14672;50.250;8.312;2023-05-03T02:55:19;99883.00;;;8.12;55.98
27144;BME280;14672;50.250;8.312;2023-05-03T02:57:46;99877.28;;;8.23;55.74
27144;BME280;14672;50.250;8.312;2023-05-03T03:00:12;99876.53;;;8.15;56.01
27144;BME280;14672;50.250;8.312;2023-05-03T03:02:40;99874.97;;;8.11;56.19
27144;BME280;14672;50.250;8.312;2023-05-03T03:05:06;99879.09;;;7.99;56.13
27144;BME280;14672;50.250;8.312;2023-05-03T03:07:33;99879.09;;;7.99;56.77
27144;BME280;14672;50.250;8.312;2023-05-03T03:09:59;99880.34;;;7.94;56.59
27144;BME280;14672;50.250;8.312;2023-05-03T03:12:25;99873.97;;;7.83;56.27
27144;BME280;14672;50.250;8.312;2023-05-03T03:14:53;99871.13;;;7.87;56.08
27144;BME280;14672;50.250;8.312;2023-05-03T03:17:19;99870.41;;;7.76;55.91
27144;BME280;14672;50.250;8.312;2023-05-03T03:19:45;99865.91;;;7.82;56.41
27144;BME280;14672;50.250;8.312;2023-05-03T03:22:11;99867.91;;;7.81;56.19
27144;BME280;14672;50.250;8.312;2023-05-03T03:24:37;99851.88;;;7.68;56.38
27144;BME280;14672;50.250;8.312;2023-05-03T03:27:05;99852.66;;;7.72;56.98
27144;BME280;14672;50.250;8.312;2023-05-03T03:29:32;99859.13;;;7.72;56.97
27144;BME280;14672;50.250;8.312;2023-05-03T03:31:58;99861.97;;;7.65;56.28
27144;BME280;14672;50.250;8.312;2023-05-03T03:34:24;99860.38;;;7.64;57.01
27144;BME280;14672;50.250;8.312;2023-05-03T03:36:50;99861.66;;;7.52;57.33
27144;BME280;14672;50.250;8.312;2023-05-03T03:39:15;99865.72;;;7.51;57.04
27144;BME280;14672;50.250;8.312;2023-05-03T03:41:42;99860.53;;;7.43;57.03
27144;BME280;14672;50.250;8.312;2023-05-03T03:44:08;99872.16;;;7.55;56.85
27144;BME280;14672;50.250;8.312;2023-05-03T03:46:34;99868.19;;;7.42;56.85
27144;BME280;14672;50.250;8.312;2023-05-03T03:48:59;99876.31;;;7.40;56.99
27144;BME280;14672;50.250;8.312;2023-05-03T03:51:25;99881.97;;;7.33;56.99
27144;BME280;14672;50.250;8.312;2023-05-03T03:53:51;99881.94;;;7.44;56.43
27144;BME280;14672;50.250;8.312;2023-05-03T03:56:17;99892.47;;;7.36;56.41
27144;BME280;14672;50.250;8.312;2023-05-03T03:58:43;99895.72;;;7.31;56.90
27144;BME280;14672;50.250;8.312;2023-05-03T04:01:09;99893.31;;;7.30;57.10
27144;BME280;14672;50.250;8.312;2023-05-03T04:03:35;99896.91;;;7.37;56.97
27144;BME280;14672;50.250;8.312;2023-05-03T04:06:00;99905.84;;;7.25;57.12
27144;BME280;14672;50.250;8.312;2023-05-03T04:08:26;99907.47;;;7.26;57.43
27144;BME280;14672;50.250;8.312;2023-05-03T04:10:52;99903.81;;;7.26;57.15
27144;BME280;14672;50.250;8.312;2023-05-03T04:13:18;99911.13;;;7.20;57.88
27144;BME280;14672;50.250;8.312;2023-05-03T04:15:44;99905.06;;;7.21;57.98
27144;BME280;14672;50.250;8.312;2023-05-03T04:18:10;99906.28;;;7.20;57.82
27144;BME280;14672;50.250;8.312;2023-05-03T04:20:36;99891.78;;;7.15;57.50
27144;BME280;14672;50.250;8.312;2023-05-03T04:23:02;99898.63;;;7.17;57.90
27144;BME280;14672;50.250;8.312;2023-05-03T04:25:28;99890.53;;;7.19;57.88
27144;BME280;14672;50.250;8.312;2023-05-03T04:27:57;99899.84;;;7.13;57.84
27144;BME280;14672;50.250;8.312;2023-05-03T04:30:23;99891.81;;;7.07;58.24
27144;BME280;14672;50.250;8.312;2023-05-03T04:32:50;99897.44;;;7.11;57.89
27144;BME280;14672;50.250;8.312;2023-05-03T04:35:18;99891.38;;;7.09;57.81
27144;BME280;14672;50.250;8.312;2023-05-03T04:37:44;99895.81;;;7.14;58.21
27144;BME280;14672;50.250;8.312;2023-05-03T04:40:10;99891.38;;;7.09;57.98
27144;BME280;14672;50.250;8.312;2023-05-03T04:42:37;99891.75;;;7.18;58.20
27144;BME280;14672;50.250;8.312;2023-05-03T04:45:03;99896.66;;;7.07;58.27
27144;BME280;14672;50.250;8.312;2023-05-03T04:47:34;99886.97;;;7.08;58.45
27144;BME280;14672;50.250;8.312;2023-05-03T04:50:00;99886.97;;;7.08;58.42
27144;BME280;14672;50.250;8.312;2023-05-03T04:52:27;99888.56;;;7.05;58.85
27144;BME280;14672;50.250;8.312;2023-05-03T04:54:52;99887.78;;;7.05;58.83
27144;BME280;14672;50.250;8.312;2023-05-03T04:57:19;99899.41;;;7.18;59.01
27144;BME280;14672;50.250;8.312;2023-05-03T04:59:45;99887.75;;;7.12;59.29
27144;BME280;14672;50.250;8.312;2023-05-03T05:02:10;99888.91;;;7.22;58.74
27144;BME280;14672;50.250;8.312;2023-05-03T05:04:36;99886.47;;;7.27;59.07
27144;BME280;14672;50.250;8.312;2023-05-03T05:07:02;99894.94;;;7.27;59.34
27144;BME280;14672;50.250;8.312;2023-05-03T05:09:28;99890.06;;;7.31;59.58
27144;BME280;14672;50.250;8.312;2023-05-03T05:11:56;99886.41;;;7.34;59.78
27144;BME280;14672;50.250;8.312;2023-05-03T05:14:22;99889.19;;;7.41;59.51
27144;BME280;14672;50.250;8.312;2023-05-03T05:16:47;99894.47;;;7.39;59.58
27144;BME280;14672;50.250;8.312;2023-05-03T05:19:13;99890.78;;;7.46;59.45
27144;BME280;14672;50.250;8.312;2023-05-03T05:21:39;99891.97;;;7.55;59.70
27144;BME280;14672;50.250;8.312;2023-05-03T05:24:05;99889.84;;;7.67;59.14
27144;BME280;14672;50.250;8.312;2023-05-03T05:26:31;99889.84;;;7.70;59.90
27144;BME280;14672;50.250;8.312;2023-05-03T05:28:57;99898.28;;;7.74;59.69
27144;BME280;14672;50.250;8.312;2023-05-03T05:31:23;99897.84;;;7.79;59.29
27144;BME280;14672;50.250;8.312;2023-05-03T05:33:49;99894.22;;;7.78;59.43
27144;BME280;14672;50.250;8.312;2023-05-03T05:36:15;99895.38;;;7.88;59.81
27144;BME280;14672;50.250;8.312;2023-05-03T05:38:42;99887.16;;;8.04;59.27
27144;BME280;14672;50.250;8.312;2023-05-03T05:41:08;99896.03;;;8.06;59.36
27144;BME280;14672;50.250;8.312;2023-05-03T05:43:34;99892.72;;;8.15;60.30
27144;BME280;14672;50.250;8.312;2023-05-03T05:46:00;99895.84;;;8.27;59.90
27144;BME280;14672;50.250;8.312;2023-05-03T05:48:26;99885.28;;;8.35;60.13
27144;BME280;14672;50.250;8.312;2023-05-03T05:50:51;99885.63;;;8.40;59.95
27144;BME280;14672;50.250;8.312;2023-05-03T05:53:17;99890.75;;;8.53;59.61
27144;BME280;14672;50.250;8.312;2023-05-03T05:55:43;99888.25;;;8.62;59.12
27144;BME280;14672;50.250;8.312;2023-05-03T05:58:09;99871.16;;;8.69;59.30
27144;BME280;14672;50.250;8.312;2023-05-03T06:00:37;99870.66;;;8.77;59.43
27144;BME280;14672;50.250;8.312;2023-05-03T06:03:04;99872.53;;;8.91;59.38
27144;BME280;14672;50.250;8.312;2023-05-03T06:05:30;99875.22;;;9.02;58.92
27144;BME280;14672;50.250;8.312;2023-05-03T06:07:56;99873.84;;;9.13;58.97
27144;BME280;14672;50.250;8.312;2023-05-03T06:10:21;99876.53;;;9.27;58.99
27144;BME280;14672;50.250;8.312;2023-05-03T06:12:47;99881.97;;;9.41;58.83
27144;BME280;14672;50.250;8.312;2023-05-03T06:15:13;99889.53;;;9.52;59.23
27144;BME280;14672;50.250;8.312;2023-05-03T06:17:39;99886.09;;;9.64;59.39
27144;BME280;14672;50.250;8.312;2023-05-03T06:20:06;99882.69;;;9.76;59.40
27144;BME280;14672;50.250;8.312;2023-05-03T06:22:36;99887.00;;;9.84;60.09
27144;BME280;14672;50.250;8.312;2023-05-03T06:25:02;99888.03;;;9.97;59.55
27144;BME280;14672;50.250;8.312;2023-05-03T06:27:28;99895.88;;;10.13;59.28
27144;BME280;14672;50.250;8.312;2023-05-03T06:29:54;99894.38;;;10.31;58.57
27144;BME280;14672;50.250;8.312;2023-05-03T06:32:20;99900.22;;;10.44;58.17
27144;BME280;14672;50.250;8.312;2023-05-03T06:34:48;99888.69;;;10.55;56.87
27144;BME280;14672;50.250;8.312;2023-05-03T06:37:14;99888.97;;;10.60;56.74
27144;BME280;14672;50.250;8.312;2023-05-03T06:39:40;99896.16;;;10.88;56.81
27144;BME280;14672;50.250;8.312;2023-05-03T06:42:06;99892.88;;;10.90;55.44
27144;BME280;14672;50.250;8.312;2023-05-03T06:44:32;99889.47;;;10.98;53.89
27144;BME280;14672;50.250;8.312;2023-05-03T06:46:58;99881.06;;;11.11;53.82
27144;BME280;14672;50.250;8.312;2023-05-03T06:49:24;99883.47;;;11.12;53.56
27144;BME280;14672;50.250;8.312;2023-05-03T06:51:50;99885.16;;;11.29;53.42
27144;BME280;14672;50.250;8.312;2023-05-03T06:54:16;99887.25;;;11.45;53.19
27144;BME280;14672;50.250;8.312;2023-05-03T06:56:42;99874.63;;;11.46;53.04
27144;BME280;14672;50.250;8.312;2023-05-03T06:59:07;99881.69;;;11.58;52.47
27144;BME280;14672;50.250;8.312;2023-05-03T07:01:34;99879.72;;;11.71;52.04
27144;BME280;14672;50.250;8.312;2023-05-03T07:04:00;99880.41;;;11.78;50.23
27144;BME280;14672;50.250;8.312;2023-05-03T07:06:26;99879.34;;;11.89;50.05
27144;BME280;14672;50.250;8.312;2023-05-03T07:08:52;99874.19;;;12.00;50.31
27144;BME280;14672;50.250;8.312;2023-05-03T07:11:20;99866.28;;;12.07;49.59
27144;BME280;14672;50.250;8.312;2023-05-03T07:13:53;99865.66;;;12.16;49.08
27144;BME280;14672;50.250;8.312;2023-05-03T07:16:19;99866.19;;;12.27;48.86
27144;BME280;14672;50.250;8.312;2023-05-03T07:18:47;99870.00;;;12.37;48.56
27144;BME280;14672;50.250;8.312;2023-05-03T07:21:13;99855.28;;;12.38;48.09
27144;BME280;14672;50.250;8.312;2023-05-03T07:23:40;99863.13;;;12.50;47.77
27144;BME280;14672;50.250;8.312;2023-05-03T07:26:06;99858.06;;;12.58;47.43
27144;BME280;14672;50.250;8.312;2023-05-03T07:28:32;99864.78;;;12.64;47.47
27144;BME280;14672;50.250;8.312;2023-05-03T07:30:59;99864.16;;;12.73;47.59
27144;BME280;14672;50.250;8.312;2023-05-03T07:33:25;99867.44;;;12.71;47.14
27144;BME280;14672;50.250;8.312;2023-05-03T07:35:51;99861.81;;;12.84;46.65
27144;BME280;14672;50.250;8.312;2023-05-03T07:38:17;99862.06;;;12.89;46.68
27144;BME280;14672;50.250;8.312;2023-05-03T07:40:44;99859.81;;;12.97;46.34
27144;BME280;14672;50.250;8.312;2023-05-03T07:43:09;99864.94;;;13.02;45.80
27144;BME280;14672;50.250;8.312;2023-05-03T07:45:36;99863.94;;;13.08;45.85
27144;BME280;14672;50.250;8.312;2023-05-03T07:48:02;99855.31;;;13.12;46.21
27144;BME280;14672;50.250;8.312;2023-05-03T07:50:29;99846.78;;;13.25;46.12
27144;BME280;14672;50.250;8.312;2023-05-03T07:52:56;99848.28;;;13.29;45.56
27144;BME280;14672;50.250;8.312;2023-05-03T07:55:22;99844.50;;;13.32;45.07
27144;BME280;14672;50.250;8.312;2023-05-03T07:57:48;99848.63;;;13.44;44.54
27144;BME280;14672;50.250;8.312;2023-05-03T08:00:15;99849.22;;;13.51;44.51
27144;BME280;14672;50.250;8.312;2023-05-03T08:02:42;99854.47;;;13.53;44.81
27144;BME280;14672;50.250;8.312;2023-05-03T08:05:10;99847.28;;;13.61;44.69
27144;BME280;14672;50.250;8.312;2023-05-03T08:07:38;99843.53;;;13.64;44.29
27144;BME280;14672;50.250;8.312;2023-05-03T08:10:05;99843.16;;;13.75;44.65
27144;BME280;14672;50.250;8.312;2023-05-03T08:12:31;99842.84;;;13.85;44.87
27144;BME280;14672;50.250;8.312;2023-05-03T08:14:56;99842.84;;;13.85;45.13
27144;BME280;14672;50.250;8.312;2023-05-03T08:17:22;99839.75;;;13.92;44.74
27144;BME280;14672;50.250;8.312;2023-05-03T08:19:49;99840.75;;;13.98;45.39
27144;BME280;14672;50.250;8.312;2023-05-03T08:22:15;99838.34;;;14.09;45.46
27144;BME280;14672;50.250;8.312;2023-05-03T08:24:41;99841.56;;;14.11;44.37
27144;BME280;14672;50.250;8.312;2023-05-03T08:27:08;99838.69;;;14.11;44.42
27144;BME280;14672;50.250;8.312;2023-05-03T08:29:35;99836.84;;;14.18;44.08
27144;BME280;14672;50.250;8.312;2023-05-03T08:32:04;99840.84;;;14.20;44.01
27144;BME280;14672;50.250;8.312;2023-05-03T08:34:31;99839.47;;;14.25;43.77
27144;BME280;14672;50.250;8.312;2023-05-03T08:36:57;99837.88;;;14.36;43.52
27144;BME280;14672;50.250;8.312;2023-05-03T08:39:23;99838.56;;;14.40;43.75
27144;BME280;14672;50.250;8.312;2023-05-03T08:41:52;99841.88;;;14.39;43.68
27144;BME280;14672;50.250;8.312;2023-05-03T08:44:22;99841.59;;;14.46;43.89
27144;BME280;14672;50.250;8.312;2023-05-03T08:46:51;99835.44;;;14.47;43.53
27144;BME280;14672;50.250;8.312;2023-05-03T08:49:17;99833.66;;;14.63;43.63
27144;BME280;14672;50.250;8.312;2023-05-03T08:51:44;99837.66;;;14.65;43.63
27144;BME280;14672;50.250;8.312;2023-05-03T08:54:17;99839.13;;;14.70;43.56
27144;BME280;14672;50.250;8.312;2023-05-03T08:56:45;99825.97;;;14.72;43.32
27144;BME280;14672;50.250;8.312;2023-05-03T08:59:12;99830.75;;;14.75;42.67
27144;BME280;14672;50.250;8.312;2023-05-03T09:01:40;99832.22;;;14.80;42.82
27144;BME280;14672;50.250;8.312;2023-05-03T09:04:08;99826.38;;;14.83;43.21
27144;BME280;14672;50.250;8.312;2023-05-03T09:06:34;99822.66;;;14.95;42.65
27144;BME280;14672;50.250;8.312;2023-05-03T09:09:03;99820.38;;;14.90;42.18
27144;BME280;14672;50.250;8.312;2023-05-03T09:11:34;99819.31;;;14.97;42.26
27144;BME280;14672;50.250;8.312;2023-05-03T09:14:17;99826.91;;;15.13;42.58
27144;BME280;14672;50.250;8.312;2023-05-03T09:16:45;99827.25;;;15.15;41.89
27144;BME280;14672;50.250;8.312;2023-05-03T09:19:13;99820.13;;;15.19;41.92
27144;BME280;14672;50.250;8.312;2023-05-03T09:21:41;99815.84;;;15.24;41.77
27144;BME280;14672;50.250;8.312;2023-05-03T09:24:26;99817.03;;;15.35;42.29
27144;BME280;14672;50.250;8.312;2023-05-03T09:26:52;99812.78;;;15.40;41.90
27144;BME280;14672;50.250;8.312;2023-05-03T09:32:04;99806.69;;;15.60;42.60
27144;BME280;14672;50.250;8.312;2023-05-03T09:34:31;99809.13;;;15.70;43.10
27144;BME280;14672;50.250;8.312;2023-05-03T09:36:57;99807.38;;;15.73;41.79
27144;BME280;14672;50.250;8.312;2023-05-03T09:39:23;99792.44;;;15.78;42.47
27144;BME280;14672;50.250;8.312;2023-05-03T09:41:49;99803.44;;;15.88;42.38
27144;BME280;14672;50.250;8.312;2023-05-03T09:44:19;99798.09;;;16.00;42.08
27144;BME280;14672;50.250;8.312;2023-05-03T09:47:04;99791.09;;;16.10;42.12
27144;BME280;14672;50.250;8.312;2023-05-03T09:49:33;99787.56;;;16.06;40.90
27144;BME280;14672;50.250;8.312;2023-05-03T09:52:02;99780.09;;;16.17;40.93
27144;BME280;14672;50.250;8.312;2023-05-03T09:54:29;99785.41;;;16.28;41.01
27144;BME280;14672;50.250;8.312;2023-05-03T09:57:05;99773.00;;;16.40;41.41
27144;BME280;14672;50.250;8.312;2023-05-03T09:59:33;99774.72;;;16.47;40.56
27144;BME280;14672;50.250;8.312;2023-05-03T10:02:03;99778.38;;;16.56;40.66
27144;BME280;14672;50.250;8.312;2023-05-03T10:04:47;99772.00;;;16.25;39.50
27144;BME280;14672;50.250;8.312;2023-05-03T10:07:17;99776.50;;;16.44;39.46
27144;BME280;14672;50.250;8.312;2023-05-03T10:09:46;99779.34;;;16.53;39.16
27144;BME280;14672;50.250;8.312;2023-05-03T10:12:13;99778.28;;;16.60;39.29
27144;BME280;14672;50.250;8.312;2023-05-03T10:14:44;99781.94;;;16.69;38.50
27144;BME280;14672;50.250;8.312;2023-05-03T10:17:28;99776.19;;;16.87;38.87
27144;BME280;14672;50.250;8.312;2023-05-03T10:23:11;99783.50;;;17.07;39.17
27144;BME280;14672;50.250;8.312;2023-05-03T10:26:12;99789.00;;;17.28;39.35
27144;BME280;14672;50.250;8.312;2023-05-03T10:28:25;99782.78;;;17.39;39.07
27144;BME280;14672;50.250;8.312;2023-05-03T10:30:51;99777.31;;;17.59;39.36
27144;BME280;14672;50.250;8.312;2023-05-03T10:35:52;99770.81;;;17.82;38.20
27144;BME280;14672;50.250;8.312;2023-05-03T10:38:24;99770.88;;;17.97;38.04
27144;BME280;14672;50.250;8.312;2023-05-03T10:40:52;99763.19;;;18.03;37.89
27144;BME280;14672;50.250;8.312;2023-05-03T10:46:07;99749.97;;;18.20;35.95
27144;BME280;14672;50.250;8.312;2023-05-03T10:48:36;99748.06;;;18.41;37.01
27144;BME280;14672;50.250;8.312;2023-05-03T10:51:33;99747.63;;;18.57;37.28
27144;BME280;14672;50.250;8.312;2023-05-03T10:54:01;99749.13;;;18.67;37.00
27144;BME280;14672;50.250;8.312;2023-05-03T10:56:27;99746.09;;;18.86;36.08
27144;BME280;14672;50.250;8.312;2023-05-03T10:58:53;99746.03;;;18.95;36.28
27144;BME280;14672;50.250;8.312;2023-05-03T11:01:22;99738.19;;;19.10;35.55
27144;BME280;14672;50.250;8.312;2023-05-03T11:04:11;99735.47;;;18.92;34.36
27144;BME280;14672;50.250;8.312;2023-05-03T11:06:39;99733.69;;;19.09;35.46
27144;BME280;14672;50.250;8.312;2023-05-03T11:09:07;99736.50;;;19.18;34.56
27144;BME280;14672;50.250;8.312;2023-05-03T11:11:36;99733.00;;;19.29;34.80
27144;BME280;14672;50.250;8.312;2023-05-03T11:14:02;99716.09;;;19.36;34.74
27144;BME280;14672;50.250;8.312;2023-05-03T11:16:28;99715.59;;;19.38;34.64
27144;BME280;14672;50.250;8.312;2023-05-03T11:18:55;99714.47;;;19.64;35.86
27144;BME280;14672;50.250;8.312;2023-05-03T11:21:22;99721.53;;;19.78;35.72
27144;BME280;14672;50.250;8.312;2023-05-03T11:23:48;99723.28;;;19.90;34.76
27144;BME280;14672;50.250;8.312;2023-05-03T11:26:14;99712.25;;;20.09;34.92
27144;BME280;14672;50.250;8.312;2023-05-03T11:28:41;99716.34;;;20.23;34.91
27144;BME280;14672;50.250;8.312;2023-05-03T11:31:08;99713.72;;;20.39;34.96
27144;BME280;14672;50.250;8.312;2023-05-03T11:33:37;99709.09;;;20.47;33.01
27144;BME280;14672;50.250;8.312;2023-05-03T11:36:05;99694.19;;;20.54;32.81
27144;BME280;14672;50.250;8.312;2023-05-03T11:38:33;99697.81;;;20.70;33.79
27144;BME280;14672;50.250;8.312;2023-05-03T11:40:59;99696.31;;;20.80;33.10
27144;BME280;14672;50.250;8.312;2023-05-03T11:43:26;99687.53;;;20.94;33.23
27144;BME280;14672;50.250;8.312;2023-05-03T11:45:57;99687.25;;;21.18;33.99
27144;BME280;14672;50.250;8.312;2023-05-03T11:48:24;99682.03;;;21.22;33.05
27144;BME280;14672;50.250;8.312;2023-05-03T11:50:53;99681.59;;;21.29;33.30
27144;BME280;14672;50.250;8.312;2023-05-03T11:53:24;99680.22;;;21.56;32.42
27144;BME280;14672;50.250;8.312;2023-05-03T11:55:54;99671.47;;;21.50;31.51
27144;BME280;14672;50.250;8.312;2023-05-03T11:58:22;99671.66;;;21.78;31.91
27144;BME280;14672;50.250;8.312;2023-05-03T12:00:52;99665.97;;;21.89;32.14
27144;BME280;14672;50.250;8.312;2023-05-03T12:03:28;99663.41;;;22.02;31.66
27144;BME280;14672;50.250;8.312;2023-05-03T12:05:57;99652.22;;;22.21;31.58
27144;BME280;14672;50.250;8.312;2023-05-03T12:08:32;99659.31;;;22.20;31.23
27144;BME280;14672;50.250;8.312;2023-05-03T12:10:59;99656.69;;;22.33;30.84
27144;BME280;14672;50.250;8.312;2023-05-03T12:13:32;99652.59;;;22.57;31.41
27144;BME280;14672;50.250;8.312;2023-05-03T12:16:04;99654.75;;;22.73;32.01
27144;BME280;14672;50.250;8.312;2023-05-03T12:18:57;99656.09;;;22.88;31.31
27144;BME280;14672;50.250;8.312;2023-05-03T12:21:47;99655.03;;;23.03;30.99
27144;BME280;14672;50.250;8.312;2023-05-03T12:24:13;99664.53;;;23.03;30.11
27144;BME280;14672;50.250;8.312;2023-05-03T12:26:47;99650.56;;;23.07;30.04
27144;BME280;14672;50.250;8.312;2023-05-03T12:29:13;99654.53;;;23.21;30.03
27144;BME280;14672;50.250;8.312;2023-05-03T12:31:39;99645.03;;;23.31;29.90
27144;BME280;14672;50.250;8.312;2023-05-03T12:34:05;99643.19;;;23.45;30.00
27144;BME280;14672;50.250;8.312;2023-05-03T12:36:32;99634.25;;;23.21;28.68
27144;BME280;14672;50.250;8.312;2023-05-03T12:39:01;99637.41;;;23.28;29.88
27144;BME280;14672;50.250;8.312;2023-05-03T12:41:28;99626.06;;;23.53;30.16
27144;BME280;14672;50.250;8.312;2023-05-03T12:43:59;99633.41;;;23.76;30.46
27144;BME280;14672;50.250;8.312;2023-05-03T12:46:27;99624.88;;;23.89;29.32
27144;BME280;14672;50.250;8.312;2023-05-03T12:48:53;99619.31;;;24.08;29.94
27144;BME280;14672;50.250;8.312;2023-05-03T12:51:19;99628.81;;;24.08;28.97
27144;BME280;14672;50.250;8.312;2023-05-03T12:53:45;99606.16;;;23.96;29.06
27144;BME280;14672;50.250;8.312;2023-05-03T12:56:12;99608.00;;;23.93;29.05
27144;BME280;14672;50.250;8.312;2023-05-03T12:58:38;99612.91;;;24.26;30.27
27144;BME280;14672;50.250;8.312;2023-05-03T13:01:04;99603.28;;;24.48;30.30
27144;BME280;14672;50.250;8.312;2023-05-03T13:03:30;99604.06;;;24.48;29.88
27144;BME280;14672;50.250;8.312;2023-05-03T13:05:56;99595.22;;;24.65;30.15
27144;BME280;14672;50.250;8.312;2023-05-03T13:08:22;99599.94;;;24.73;28.93
27144;BME280;14672;50.250;8.312;2023-05-03T13:10:49;99596.44;;;24.80;28.94
27144;BME280;14672;50.250;8.312;2023-05-03T13:13:15;99588.50;;;24.81;28.01
27144;BME280;14672;50.250;8.312;2023-05-03T13:15:41;99590.53;;;24.97;28.44
27144;BME280;14672;50.250;8.312;2023-05-03T13:18:08;99587.56;;;25.03;28.43
27144;BME280;14672;50.250;8.312;2023-05-03T13:20:35;99594.63;;;25.13;28.96
27144;BME280;14672;50.250;8.312;2023-05-03T13:23:01;99589.66;;;25.08;28.59
27144;BME280;14672;50.250;8.312;2023-05-03T13:25:28;99593.03;;;25.42;28.24